createdAt,value
2022-10-24T00:00:44.799Z,3.60
2022-10-24T00:01:47.058Z,3.67
2022-10-24T00:02:49.479Z,3.40
2022-10-24T00:03:51.943Z,4.05
2022-10-24T00:04:54.198Z,3.35
2022-10-24T00:05:56.669Z,3.40
2022-10-24T00:06:58.863Z,3.40
2022-10-24T00:08:01.060Z,3.05
2022-10-24T00:09:03.875Z,2.83
2022-10-24T00:10:06.651Z,3.30
2022-10-24T00:11:21.361Z,4.07
2022-10-24T00:13:30.900Z,3.50
2022-10-24T00:14:35.002Z,3.00
2022-10-24T00:15:37.519Z,2.90
2022-10-24T00:16:39.750Z,2.50
2022-10-24T00:17:42.026Z,2.88
2022-10-24T00:18:44.289Z,3.83
2022-10-24T00:19:46.536Z,3.50
2022-10-24T00:20:48.797Z,2.95
2022-10-24T00:21:51.004Z,3.25
2022-10-24T00:22:53.194Z,2.83
2022-10-24T00:23:55.668Z,5.18
2022-10-24T00:24:58.353Z,3.47
2022-10-24T00:26:01.894Z,3.38
2022-10-24T00:27:04.508Z,3.08
2022-10-24T00:28:06.706Z,3.65
2022-10-24T00:29:09.383Z,2.60
2022-10-24T00:30:12.103Z,3.10
2022-10-24T00:31:17.249Z,3.38
2022-10-24T00:32:19.437Z,3.65
2022-10-24T00:33:22.057Z,3.38
2022-10-24T00:34:24.401Z,3.50
2022-10-24T00:35:26.741Z,2.85
2022-10-24T00:36:29.346Z,3.50
2022-10-24T00:37:31.550Z,3.50
2022-10-24T00:38:33.752Z,2.88
2022-10-24T00:39:35.955Z,3.50
2022-10-24T00:40:38.446Z,3.08
2022-10-24T00:41:42.932Z,3.05
2022-10-24T00:42:45.481Z,3.20
2022-10-24T00:43:48.051Z,2.92
2022-10-24T00:44:53.012Z,3.22
2022-10-24T00:45:57.283Z,3.35
2022-10-24T00:47:01.978Z,3.17
2022-10-24T00:48:22.121Z,2.78
2022-10-24T00:49:31.808Z,3.20
2022-10-24T00:50:34.162Z,2.95
2022-10-24T00:51:36.321Z,3.35
2022-10-24T00:52:43.676Z,3.33
2022-10-24T00:53:49.597Z,3.22
2022-10-24T00:54:53.655Z,2.97
2022-10-24T00:56:00.711Z,3.10
2022-10-24T00:57:10.126Z,2.78
2022-10-24T00:58:13.223Z,2.95
2022-10-24T00:59:17.832Z,3.65
2022-10-24T01:00:23.747Z,3.50
2022-10-24T01:01:27.383Z,3.00
2022-10-24T01:02:29.581Z,3.97
2022-10-24T01:03:32.753Z,3.03
2022-10-24T01:04:34.874Z,3.58
2022-10-24T01:05:48.335Z,3.55
2022-10-24T01:07:05.335Z,2.92
2022-10-24T01:08:21.542Z,3.03
2022-10-24T01:09:41.720Z,3.25
2022-10-24T01:10:59.802Z,3.30
2022-10-24T01:12:16.686Z,2.92
2022-10-24T01:13:31.709Z,2.85
2022-10-24T01:14:45.045Z,3.75
2022-10-24T01:16:00.409Z,3.15
2022-10-24T01:17:15.482Z,2.53
2022-10-24T01:18:28.328Z,2.78
2022-10-24T01:19:45.344Z,3.10
2022-10-24T01:21:06.977Z,3.00
2022-10-24T01:22:47.731Z,2.85
2022-10-24T01:24:08.666Z,2.80
2022-10-24T01:25:23.430Z,3.13
2022-10-24T01:26:59.144Z,2.88
2022-10-24T01:28:09.625Z,3.35
2022-10-24T01:29:23.392Z,3.15
2022-10-24T01:30:29.168Z,3.20
2022-10-24T01:31:55.129Z,3.10
2022-10-24T01:33:16.419Z,4.18
2022-10-24T01:34:30.853Z,4.10
2022-10-24T01:35:56.499Z,6.55
2022-10-24T01:37:14.955Z,3.50
2022-10-24T01:38:38.832Z,2.67
2022-10-24T01:39:47.566Z,3.10
2022-10-24T01:40:52.527Z,3.70
2022-10-24T01:41:57.926Z,3.13
2022-10-24T01:43:06.460Z,2.97
2022-10-24T01:44:17.418Z,3.03
2022-10-24T01:45:41.947Z,2.80
2022-10-24T01:46:54.090Z,2.15
2022-10-24T01:48:00.907Z,2.60
2022-10-24T01:49:07.916Z,2.60
2022-10-24T01:50:13.435Z,2.50
2022-10-24T01:51:19.211Z,3.03
2022-10-24T01:52:21.587Z,3.47
2022-10-24T01:53:26.129Z,3.20
2022-10-24T01:54:29.557Z,2.83
2022-10-24T01:55:32.877Z,3.58
2022-10-24T01:56:35.031Z,2.55
2022-10-24T01:57:38.794Z,3.53
2022-10-24T01:58:41.047Z,3.25
2022-10-24T01:59:48.525Z,3.58
2022-10-24T02:00:55.025Z,3.80
2022-10-24T02:02:06.615Z,3.00
2022-10-24T02:03:19.122Z,2.58
2022-10-24T02:05:31.774Z,2.45
2022-10-24T02:06:40.811Z,2.67
2022-10-24T02:07:47.894Z,2.22
2022-10-24T02:08:56.795Z,2.35
2022-10-24T02:10:08.214Z,2.25
2022-10-24T02:11:10.967Z,2.38
2022-10-24T02:12:15.351Z,2.17
2022-10-24T02:13:39.126Z,2.17
2022-10-24T02:14:58.778Z,2.65
2022-10-24T02:16:02.944Z,2.63
2022-10-24T02:17:05.351Z,2.15
2022-10-24T02:18:08.559Z,2.30
2022-10-24T02:19:13.625Z,2.30
2022-10-24T02:20:16.076Z,2.70
2022-10-24T02:21:24.091Z,2.33
2022-10-24T02:22:45.932Z,2.40
2022-10-24T02:24:20.002Z,2.17
2022-10-24T02:25:28.402Z,2.17
2022-10-24T02:26:52.210Z,2.72
2022-10-24T02:28:09.089Z,2.78
2022-10-24T02:29:16.064Z,2.45
2022-10-24T02:30:21.439Z,2.40
2022-10-24T02:31:26.895Z,2.30
2022-10-24T02:32:35.972Z,2.80
2022-10-24T02:33:41.279Z,2.42
2022-10-24T02:34:44.708Z,2.53
2022-10-24T02:35:49.494Z,2.00
2022-10-24T02:36:54.685Z,2.35
2022-10-24T02:38:14.254Z,2.10
2022-10-24T02:39:17.653Z,2.78
2022-10-24T02:40:22.305Z,2.22
2022-10-24T02:41:31.804Z,2.20
2022-10-24T02:42:35.743Z,2.80
2022-10-24T02:43:40.672Z,2.40
2022-10-24T02:44:47.036Z,2.05
2022-10-24T02:45:54.281Z,2.10
2022-10-24T02:46:58.458Z,2.60
2022-10-24T02:48:04.976Z,2.40
2022-10-24T02:49:07.296Z,2.38
2022-10-24T02:50:09.995Z,3.22
2022-10-24T02:51:14.295Z,2.47
2022-10-24T02:52:17.415Z,2.17
2022-10-24T02:53:21.727Z,2.15
2022-10-24T02:54:24.015Z,2.50
2022-10-24T02:55:26.296Z,2.40
2022-10-24T02:56:29.465Z,2.20
2022-10-24T02:57:31.689Z,2.30
2022-10-24T02:58:33.843Z,2.35
2022-10-24T02:59:36.204Z,2.33
2022-10-24T03:00:38.400Z,2.33
2022-10-24T03:01:40.916Z,2.60
2022-10-24T03:02:43.441Z,2.40
2022-10-24T03:03:45.780Z,2.45
2022-10-24T03:04:47.955Z,2.25
2022-10-24T03:05:50.213Z,2.33
2022-10-24T03:06:53.303Z,2.13
2022-10-24T03:07:55.523Z,2.03
2022-10-24T03:08:57.688Z,2.03
2022-10-24T03:09:59.842Z,2.33
2022-10-24T03:11:01.985Z,3.00
2022-10-24T03:12:04.611Z,2.22
2022-10-24T03:13:06.871Z,2.33
2022-10-24T03:14:09.152Z,2.38
2022-10-24T03:15:11.800Z,2.20
2022-10-24T03:16:14.415Z,2.10
2022-10-24T03:17:16.786Z,1.92
2022-10-24T03:18:19.090Z,2.22
2022-10-24T03:19:21.274Z,2.45
2022-10-24T03:20:24.567Z,2.00
2022-10-24T03:21:26.786Z,2.17
2022-10-24T03:22:30.617Z,2.40
2022-10-24T03:23:33.259Z,2.45
2022-10-24T03:24:43.781Z,2.55
2022-10-24T03:25:46.853Z,2.30
2022-10-24T03:26:52.079Z,2.13
2022-10-24T03:27:54.313Z,2.00
2022-10-24T03:28:56.562Z,3.05
2022-10-24T03:29:58.740Z,2.22
2022-10-24T03:31:00.908Z,1.90
2022-10-24T03:32:03.181Z,2.45
2022-10-24T03:33:05.676Z,2.70
2022-10-24T03:34:07.903Z,2.08
2022-10-24T03:35:13.323Z,1.88
2022-10-24T03:36:16.597Z,2.40
2022-10-24T03:37:18.958Z,2.20
2022-10-24T03:38:22.593Z,2.75
2022-10-24T03:39:24.744Z,2.40
2022-10-24T03:40:26.931Z,2.20
2022-10-24T03:41:29.395Z,2.80
2022-10-24T03:42:31.617Z,2.28
2022-10-24T03:43:33.867Z,3.15
2022-10-24T03:44:36.386Z,2.85
2022-10-24T03:45:39.321Z,2.72
2022-10-24T03:46:41.578Z,2.42
2022-10-24T03:47:43.794Z,2.42
2022-10-24T03:48:46.023Z,2.45
2022-10-24T03:49:48.302Z,2.80
2022-10-24T03:50:50.496Z,2.22
2022-10-24T03:51:52.651Z,2.20
2022-10-24T03:52:54.959Z,2.58
2022-10-24T03:53:57.278Z,2.60
2022-10-24T03:54:59.505Z,2.50
2022-10-24T03:56:01.685Z,2.42
2022-10-24T03:57:04.351Z,2.55
2022-10-24T03:58:06.724Z,2.92
2022-10-24T03:59:09.354Z,2.42
2022-10-24T04:00:11.828Z,2.55
2022-10-24T04:01:17.862Z,2.70
2022-10-24T04:02:20.185Z,2.35
2022-10-24T04:03:22.365Z,2.58
2022-10-24T04:04:24.602Z,2.50
2022-10-24T04:05:26.850Z,2.38
2022-10-24T04:06:31.329Z,2.40
2022-10-24T04:07:36.348Z,2.60
2022-10-24T04:08:38.715Z,2.60
2022-10-24T04:09:41.002Z,2.70
2022-10-24T04:10:43.384Z,2.92
2022-10-24T04:11:45.711Z,2.95
2022-10-24T04:12:47.905Z,2.97
2022-10-24T04:13:50.330Z,2.65
2022-10-24T04:14:52.708Z,2.63
2022-10-24T04:15:54.887Z,2.75
2022-10-24T04:16:57.166Z,3.20
2022-10-24T04:17:59.702Z,2.38
2022-10-24T04:19:01.959Z,3.05
2022-10-24T04:20:04.927Z,3.28
2022-10-24T04:21:07.071Z,3.75
2022-10-24T04:22:09.523Z,2.95
2022-10-24T04:23:11.770Z,2.70
2022-10-24T04:24:14.577Z,2.92
2022-10-24T04:25:17.662Z,2.50
2022-10-24T04:26:19.977Z,3.53
2022-10-24T04:27:22.163Z,2.85
2022-10-24T04:28:24.417Z,2.97
2022-10-24T04:29:26.723Z,2.97
2022-10-24T04:30:29.810Z,2.83
2022-10-24T04:31:32.027Z,3.45
2022-10-24T04:32:34.406Z,3.15
2022-10-24T04:33:36.592Z,3.15
2022-10-24T04:34:38.945Z,2.95
2022-10-24T04:35:47.423Z,3.08
2022-10-24T04:36:49.631Z,3.08
2022-10-24T04:37:52.419Z,2.90
2022-10-24T04:38:54.834Z,2.95
2022-10-24T04:39:57.001Z,3.05
2022-10-24T04:40:59.191Z,3.70
2022-10-24T04:42:01.703Z,4.40
2022-10-24T04:43:03.850Z,3.22
2022-10-24T04:44:06.073Z,3.28
2022-10-24T04:45:08.938Z,3.05
2022-10-24T04:46:11.208Z,3.65
2022-10-24T04:47:13.528Z,2.83
2022-10-24T04:48:16.383Z,3.50
2022-10-24T04:49:18.592Z,3.60
2022-10-24T04:50:20.741Z,3.17
2022-10-24T04:51:23.357Z,3.88
2022-10-24T04:52:25.504Z,3.40
2022-10-24T04:53:27.793Z,3.05
2022-10-24T04:54:30.039Z,3.50
2022-10-24T04:55:32.481Z,3.13
2022-10-24T04:56:35.133Z,3.78
2022-10-24T04:57:37.374Z,3.15
2022-10-24T04:58:39.590Z,3.60
2022-10-24T04:59:41.721Z,3.42
2022-10-24T05:00:46.577Z,3.50
2022-10-24T05:01:48.944Z,3.40
2022-10-24T05:02:54.087Z,3.55
2022-10-24T05:03:59.258Z,3.58
2022-10-24T05:05:01.543Z,4.55
2022-10-24T05:06:04.222Z,4.18
2022-10-24T05:07:06.452Z,4.63
2022-10-24T05:08:08.576Z,4.82
2022-10-24T05:09:10.786Z,5.20
2022-10-24T05:10:14.293Z,4.57
2022-10-24T05:11:16.455Z,5.65
2022-10-24T05:13:21.805Z,4.90
2022-10-24T05:14:24.642Z,3.97
2022-10-24T05:15:29.791Z,5.38
2022-10-24T05:16:31.961Z,4.63
2022-10-24T05:17:34.792Z,5.43
2022-10-24T05:18:36.957Z,5.20
2022-10-24T05:19:39.120Z,4.90
2022-10-24T05:21:48.530Z,3.20
2022-10-24T05:22:50.718Z,2.30
2022-10-24T05:23:53.621Z,3.53
2022-10-24T05:24:56.591Z,2.45
2022-10-24T05:25:58.833Z,2.42
2022-10-24T05:27:00.960Z,2.30
2022-10-24T05:28:03.200Z,2.50
2022-10-24T05:29:05.354Z,2.13
2022-10-24T05:30:08.329Z,2.20
2022-10-24T05:31:10.500Z,2.63
2022-10-24T05:32:12.660Z,2.83
2022-10-24T05:33:14.825Z,2.80
2022-10-24T05:34:17.063Z,3.05
2022-10-24T05:35:19.286Z,2.60
2022-10-24T05:36:21.496Z,3.08
2022-10-24T05:37:23.879Z,2.55
2022-10-24T05:38:26.143Z,2.95
2022-10-24T05:39:28.299Z,2.58
2022-10-24T05:40:30.514Z,2.95
2022-10-24T05:41:32.697Z,3.05
2022-10-24T05:42:35.174Z,3.42
2022-10-24T05:43:37.421Z,3.10
2022-10-24T05:44:39.637Z,3.05
2022-10-24T05:45:42.387Z,3.30
2022-10-24T05:46:44.608Z,2.88
2022-10-24T05:47:46.985Z,2.60
2022-10-24T05:48:49.396Z,3.05
2022-10-24T05:49:51.557Z,18.80
2022-10-24T05:50:58.014Z,7.80
2022-10-24T05:52:00.271Z,8.55
2022-10-24T05:53:03.204Z,12.93
2022-10-24T05:54:05.461Z,6.20
2022-10-24T05:55:08.878Z,6.28
2022-10-24T05:56:11.161Z,4.70
2022-10-24T05:57:13.309Z,3.47
2022-10-24T05:58:20.841Z,4.07
2022-10-24T05:59:23.072Z,3.05
2022-10-24T06:00:25.255Z,3.10
2022-10-24T06:01:27.526Z,3.55
2022-10-24T06:02:29.885Z,3.17
2022-10-24T06:03:32.185Z,3.38
2022-10-24T06:04:34.329Z,3.10
2022-10-24T06:05:36.482Z,2.67
2022-10-24T06:06:40.531Z,2.70
2022-10-24T06:07:43.218Z,2.80
2022-10-24T06:08:45.664Z,3.25
2022-10-24T06:09:47.811Z,2.97
2022-10-24T06:10:51.121Z,3.00
2022-10-24T06:11:53.278Z,4.80
2022-10-24T06:12:55.407Z,6.88
2022-10-24T06:13:57.596Z,6.35
2022-10-24T06:15:00.327Z,5.07
2022-10-24T06:16:02.677Z,4.70
2022-10-24T06:17:06.221Z,4.47
2022-10-24T06:18:08.409Z,4.13
2022-10-24T06:19:10.651Z,5.10
2022-10-24T06:20:12.833Z,4.80
2022-10-24T06:21:16.416Z,5.57
2022-10-24T06:22:18.845Z,4.47
2022-10-24T06:23:21.023Z,4.43
2022-10-24T06:24:23.214Z,5.28
2022-10-24T06:25:26.175Z,4.55
2022-10-24T06:26:28.360Z,4.85
2022-10-24T06:27:30.647Z,5.18
2022-10-24T06:28:32.858Z,6.75
2022-10-24T06:29:35.617Z,4.97
2022-10-24T06:30:39.603Z,5.97
2022-10-24T06:31:41.811Z,6.05
2022-10-24T06:32:44.739Z,4.57
2022-10-24T06:33:47.291Z,4.28
2022-10-24T06:34:50.648Z,4.05
2022-10-24T06:35:53.144Z,4.18
2022-10-24T06:36:55.350Z,4.78
2022-10-24T06:37:57.989Z,4.70
2022-10-24T06:39:00.288Z,4.97
2022-10-24T06:40:02.806Z,4.38
2022-10-24T06:41:10.223Z,4.50
2022-10-24T06:42:12.518Z,4.15
2022-10-24T06:43:14.770Z,4.40
2022-10-24T06:44:17.607Z,4.60
2022-10-24T06:45:21.680Z,4.20
2022-10-24T06:46:24.153Z,4.40
2022-10-24T06:47:26.295Z,4.75
2022-10-24T06:48:28.449Z,4.72
2022-10-24T06:49:30.600Z,4.45
2022-10-24T06:50:32.792Z,3.88
2022-10-24T06:51:35.094Z,4.03
2022-10-24T06:52:37.394Z,4.88
2022-10-24T06:53:39.591Z,4.63
2022-10-24T06:54:43.603Z,4.80
2022-10-24T06:55:45.769Z,4.97
2022-10-24T06:56:47.927Z,3.90
2022-10-24T06:57:50.102Z,3.22
2022-10-24T06:58:52.546Z,3.92
2022-10-24T06:59:54.704Z,3.42
2022-10-24T07:00:56.933Z,3.58
2022-10-24T07:02:01.829Z,4.28
2022-10-24T07:03:07.164Z,4.28
2022-10-24T07:04:10.502Z,4.38
2022-10-24T07:05:14.319Z,3.97
2022-10-24T07:07:29.809Z,5.03
2022-10-24T07:08:31.982Z,3.05
2022-10-24T07:09:34.296Z,4.47
2022-10-24T07:10:36.525Z,4.32
2022-10-24T07:11:38.724Z,5.05
2022-10-24T07:12:41.440Z,4.50
2022-10-24T07:13:43.692Z,4.72
2022-10-24T07:14:45.834Z,5.13
2022-10-24T07:15:47.995Z,3.33
2022-10-24T07:16:50.169Z,3.95
2022-10-24T07:17:52.379Z,4.32
2022-10-24T07:18:54.757Z,3.60
2022-10-24T07:19:57.171Z,4.05
2022-10-24T07:21:17.580Z,3.17
2022-10-24T07:22:19.849Z,3.42
2022-10-24T07:23:22.060Z,3.55
2022-10-24T07:24:24.286Z,3.00
2022-10-24T07:25:26.461Z,3.65
2022-10-24T07:26:29.978Z,3.15
2022-10-24T07:27:33.306Z,4.88
2022-10-24T07:28:36.590Z,7.25
2022-10-24T07:29:39.604Z,4.38
2022-10-24T07:30:44.232Z,3.85
2022-10-24T07:31:47.448Z,3.60
2022-10-24T07:32:49.700Z,3.90
2022-10-24T07:33:52.965Z,3.75
2022-10-24T07:34:55.138Z,3.90
2022-10-24T07:35:57.337Z,3.50
2022-10-24T07:36:59.485Z,3.13
2022-10-24T07:38:01.670Z,3.00
2022-10-24T07:39:03.911Z,2.92
2022-10-24T07:40:06.499Z,4.05
2022-10-24T07:41:08.680Z,3.25
2022-10-24T07:42:12.300Z,14.00
2022-10-24T07:43:15.015Z,5.40
2022-10-24T07:44:17.165Z,5.70
2022-10-24T07:45:19.458Z,4.80
2022-10-24T07:46:22.402Z,4.80
2022-10-24T07:47:24.577Z,4.60
2022-10-24T07:48:26.710Z,4.38
2022-10-24T07:49:31.455Z,3.88
2022-10-24T07:50:41.950Z,4.30
2022-10-24T07:51:44.159Z,3.55
2022-10-24T07:52:46.337Z,4.65
2022-10-24T07:53:48.724Z,4.30
2022-10-24T07:54:53.946Z,3.50
2022-10-24T07:55:59.767Z,4.43
2022-10-24T07:57:02.008Z,3.47
2022-10-24T07:58:04.238Z,3.63
2022-10-24T07:59:09.572Z,4.05
2022-10-24T08:00:16.332Z,4.00
2022-10-24T08:01:24.391Z,3.78
2022-10-24T08:02:26.614Z,3.17
2022-10-24T08:03:28.773Z,3.80
2022-10-24T08:04:31.055Z,2.70
2022-10-24T08:05:33.339Z,3.33
2022-10-24T08:06:35.557Z,3.42
2022-10-24T08:07:38.310Z,4.50
2022-10-24T08:08:41.236Z,3.50
2022-10-24T08:09:46.169Z,3.42
2022-10-24T08:10:48.420Z,3.90
2022-10-24T08:11:50.864Z,3.38
2022-10-24T08:12:53.393Z,3.90
2022-10-24T08:13:57.225Z,4.18
2022-10-24T08:14:59.541Z,4.07
2022-10-24T08:16:02.877Z,3.88
2022-10-24T08:17:05.697Z,4.38
2022-10-24T08:18:07.834Z,4.32
2022-10-24T08:19:11.998Z,4.40
2022-10-24T08:20:14.247Z,4.97
2022-10-24T08:21:18.397Z,4.63
2022-10-24T08:22:20.664Z,4.63
2022-10-24T08:23:25.470Z,4.20
2022-10-24T08:24:28.653Z,3.92
2022-10-24T08:25:30.826Z,3.83
2022-10-24T08:26:33.198Z,4.88
2022-10-24T08:27:35.946Z,5.07
2022-10-24T08:28:38.479Z,3.85
2022-10-24T08:29:41.076Z,4.22
2022-10-24T08:30:43.264Z,3.00
2022-10-24T08:31:45.444Z,3.72
2022-10-24T08:32:47.912Z,4.90
2022-10-24T08:33:55.034Z,6.13
2022-10-24T08:34:58.169Z,4.55
2022-10-24T08:36:03.644Z,6.47
2022-10-24T08:37:06.019Z,5.43
2022-10-24T08:38:08.268Z,3.63
2022-10-24T08:39:10.553Z,4.72
2022-10-24T08:40:17.618Z,2.90
2022-10-24T08:41:41.371Z,2.65
2022-10-24T08:42:44.386Z,2.30
2022-10-24T08:43:46.767Z,2.85
2022-10-24T08:44:49.068Z,2.90
2022-10-24T08:46:33.066Z,2.40
2022-10-24T08:48:50.664Z,2.45
2022-10-24T08:50:33.450Z,2.40
2022-10-24T08:51:57.432Z,2.03
2022-10-24T08:53:09.277Z,1.85
2022-10-24T08:54:15.594Z,2.60
2022-10-24T08:55:37.046Z,2.20
2022-10-24T08:56:47.380Z,1.77
2022-10-24T08:57:54.283Z,2.30
2022-10-24T08:58:57.925Z,2.38
2022-10-24T09:00:07.508Z,2.28
2022-10-24T09:01:32.740Z,2.33
2022-10-24T09:02:39.612Z,2.58
2022-10-24T09:03:57.545Z,2.50
2022-10-24T09:05:14.614Z,2.50
2022-10-24T09:06:19.733Z,2.60
2022-10-24T09:08:38.373Z,2.90
2022-10-24T09:09:46.794Z,2.85
2022-10-24T09:11:05.594Z,3.00
2022-10-24T09:12:14.911Z,2.75
2022-10-24T09:13:17.785Z,2.58
2022-10-24T09:14:23.325Z,2.40
2022-10-24T09:15:30.164Z,2.67
2022-10-24T09:16:32.382Z,2.80
2022-10-24T09:17:37.012Z,3.53
2022-10-24T09:18:42.641Z,2.40
2022-10-24T09:20:00.221Z,2.72
2022-10-24T09:21:03.332Z,2.47
2022-10-24T09:22:07.332Z,2.80
2022-10-24T09:23:13.705Z,2.60
2022-10-24T09:24:38.633Z,2.15
2022-10-24T09:25:45.378Z,3.03
2022-10-24T09:26:47.597Z,2.97
2022-10-24T09:27:50.777Z,3.13
2022-10-24T09:28:55.009Z,2.70
2022-10-24T09:29:58.647Z,2.70
2022-10-24T09:31:13.243Z,2.92
2022-10-24T09:32:19.945Z,2.65
2022-10-24T09:33:27.485Z,3.00
2022-10-24T09:34:29.754Z,3.08
2022-10-24T09:35:35.246Z,2.97
2022-10-24T09:36:39.742Z,2.97
2022-10-24T09:37:47.410Z,2.55
2022-10-24T09:38:49.934Z,3.33
2022-10-24T09:40:23.057Z,3.25
2022-10-24T09:41:28.963Z,3.05
2022-10-24T09:42:31.902Z,3.63
2022-10-24T09:43:40.276Z,3.22
2022-10-24T09:44:43.743Z,3.22
2022-10-24T09:45:52.237Z,3.20
2022-10-24T09:46:54.759Z,3.63
2022-10-24T09:47:59.951Z,3.53
2022-10-24T09:49:18.855Z,3.22
2022-10-24T09:50:22.471Z,2.92
2022-10-24T09:51:31.391Z,3.20
2022-10-24T09:52:33.617Z,3.40
2022-10-24T09:53:56.694Z,3.42
2022-10-24T09:55:15.152Z,3.60
2022-10-24T09:56:17.301Z,3.50
2022-10-24T09:57:19.506Z,3.60
2022-10-24T09:58:29.784Z,2.90
2022-10-24T09:59:44.189Z,3.95
2022-10-24T10:00:58.406Z,3.85
2022-10-24T10:02:19.563Z,2.60
2022-10-24T10:03:24.027Z,3.70
2022-10-24T10:04:26.521Z,3.45
2022-10-24T10:05:50.506Z,3.20
2022-10-24T10:06:52.772Z,3.17
2022-10-24T10:07:55.051Z,2.83
2022-10-24T10:08:58.022Z,3.30
2022-10-24T10:10:22.003Z,3.70
2022-10-24T10:11:30.785Z,2.90
2022-10-24T10:12:38.290Z,3.17
2022-10-24T10:13:55.645Z,2.95
2022-10-24T10:14:58.499Z,3.00
2022-10-24T10:16:05.956Z,3.10
2022-10-24T10:17:08.187Z,3.00
2022-10-24T10:18:45.174Z,3.28
2022-10-24T10:19:48.110Z,3.00
2022-10-24T10:21:01.770Z,3.00
2022-10-24T10:22:22.701Z,2.90
2022-10-24T10:23:28.545Z,3.25
2022-10-24T10:24:33.373Z,3.25
2022-10-24T10:25:35.552Z,3.92
2022-10-24T10:26:45.344Z,4.00
2022-10-24T10:27:51.297Z,3.45
2022-10-24T10:29:03.388Z,3.05
2022-10-24T10:30:11.433Z,3.33
2022-10-24T10:31:15.992Z,3.22
2022-10-24T10:32:26.147Z,3.85
2022-10-24T10:33:45.143Z,3.20
2022-10-24T10:34:54.927Z,3.30
2022-10-24T10:36:15.580Z,3.25
2022-10-24T10:37:26.050Z,3.17
2022-10-24T10:38:46.713Z,2.92
2022-10-24T10:39:58.509Z,3.35
2022-10-24T10:41:12.194Z,3.70
2022-10-24T10:42:26.198Z,3.58
2022-10-24T10:44:14.557Z,4.05
2022-10-24T10:45:41.950Z,3.00
2022-10-24T10:47:34.882Z,3.05
2022-10-24T10:48:42.819Z,2.92
2022-10-24T10:49:48.300Z,3.25
2022-10-24T10:50:57.643Z,2.95
2022-10-24T10:52:16.783Z,3.00
2022-10-24T10:53:24.686Z,3.50
2022-10-24T10:55:08.824Z,4.20
2022-10-24T10:56:19.896Z,3.67
2022-10-24T10:57:48.586Z,3.33
2022-10-24T10:59:17.869Z,3.60
2022-10-24T11:00:43.892Z,3.15
2022-10-24T11:01:57.073Z,2.83
2022-10-24T11:03:16.829Z,3.25
2022-10-24T11:04:27.824Z,2.78
2022-10-24T11:06:01.207Z,3.17
2022-10-24T11:08:19.137Z,3.17
2022-10-24T11:09:29.588Z,3.00
2022-10-24T11:10:37.442Z,3.33
2022-10-24T11:11:46.566Z,2.72
2022-10-24T11:12:48.908Z,2.83
2022-10-24T11:13:59.439Z,3.28
2022-10-24T11:15:22.302Z,2.92
2022-10-24T11:16:29.438Z,2.58
2022-10-24T11:17:50.243Z,2.83
2022-10-24T11:18:56.422Z,2.90
2022-10-24T11:20:10.638Z,3.25
2022-10-24T11:21:14.792Z,2.78
2022-10-24T11:22:23.299Z,3.38
2022-10-24T11:23:50.320Z,3.33
2022-10-24T11:25:15.925Z,2.72
2022-10-24T11:26:39.525Z,2.90
2022-10-24T11:27:48.950Z,2.72
2022-10-24T11:29:09.340Z,2.97
2022-10-24T11:30:17.026Z,2.80
2022-10-24T11:31:40.427Z,2.55
2022-10-24T11:32:50.631Z,2.60
2022-10-24T11:34:04.223Z,2.97
2022-10-24T11:35:06.355Z,2.78
2022-10-24T11:36:20.308Z,2.35
2022-10-24T11:37:31.883Z,2.40
2022-10-24T11:38:42.598Z,3.00
2022-10-24T11:39:52.483Z,3.30
2022-10-24T11:41:16.272Z,2.70
2022-10-24T11:42:37.307Z,3.17
2022-10-24T11:43:43.199Z,2.75
2022-10-24T11:45:08.866Z,2.88
2022-10-24T11:46:22.113Z,2.50
2022-10-24T11:47:24.383Z,2.58
2022-10-24T11:48:38.641Z,2.92
2022-10-24T11:49:45.750Z,2.72
2022-10-24T11:50:50.662Z,3.00
2022-10-24T11:52:01.539Z,3.00
2022-10-24T11:53:31.420Z,2.72
2022-10-24T11:54:53.027Z,3.00
2022-10-24T11:56:01.764Z,3.03
2022-10-24T11:57:15.944Z,2.85
2022-10-24T11:58:21.330Z,2.97
2022-10-24T11:59:26.712Z,2.70
2022-10-24T12:00:51.893Z,2.42
2022-10-24T12:02:21.954Z,2.92
2022-10-24T12:03:36.009Z,2.47
2022-10-24T12:04:56.646Z,2.70
2022-10-24T12:06:26.723Z,2.92
2022-10-24T12:07:43.959Z,3.00
2022-10-24T12:09:05.244Z,2.40
2022-10-24T12:10:29.001Z,2.42
2022-10-24T12:12:01.861Z,2.65
2022-10-24T12:13:22.587Z,2.90
2022-10-24T12:14:47.119Z,2.78
2022-10-24T12:16:07.222Z,2.70
2022-10-24T12:17:30.499Z,2.45
2022-10-24T12:18:44.352Z,2.60
2022-10-24T12:19:47.310Z,2.78
2022-10-24T12:20:53.565Z,2.70
2022-10-24T12:21:59.097Z,2.35
2022-10-24T12:23:03.354Z,2.40
2022-10-24T12:24:09.461Z,3.08
2022-10-24T12:25:14.379Z,3.10
2022-10-24T12:26:25.193Z,3.00
2022-10-24T12:27:35.544Z,3.10
2022-10-24T12:28:38.463Z,2.80
2022-10-24T12:29:42.990Z,2.72
2022-10-24T12:31:14.604Z,3.03
2022-10-24T12:32:37.371Z,3.00
2022-10-24T12:33:39.546Z,3.10
2022-10-24T12:34:49.233Z,3.30
2022-10-24T12:35:57.207Z,3.05
2022-10-24T12:37:11.056Z,2.95
2022-10-24T12:38:39.282Z,2.70
2022-10-24T12:39:47.870Z,3.08
2022-10-24T12:41:05.710Z,2.72
2022-10-24T12:42:34.317Z,2.30
2022-10-24T12:43:42.710Z,3.35
2022-10-24T12:44:47.041Z,3.67
2022-10-24T12:45:49.193Z,3.70
2022-10-24T12:46:51.294Z,5.38
2022-10-24T12:47:53.422Z,8.20
2022-10-24T12:48:58.389Z,7.85
2022-10-24T12:50:22.205Z,8.10
2022-10-24T12:51:31.671Z,9.27
2022-10-24T12:52:33.785Z,8.63
2022-10-24T12:53:39.691Z,8.27
2022-10-24T12:54:44.178Z,7.88
2022-10-24T12:55:46.272Z,6.13
2022-10-24T12:56:51.168Z,5.00
2022-10-24T12:57:53.391Z,4.28
2022-10-24T12:59:02.662Z,3.80
2022-10-24T13:00:23.082Z,3.90
2022-10-24T13:01:31.408Z,3.80
2022-10-24T13:03:01.493Z,3.38
2022-10-24T13:04:09.454Z,3.40
2022-10-24T13:05:17.500Z,3.25
2022-10-24T13:06:27.444Z,3.22
2022-10-24T13:07:52.314Z,2.70
2022-10-24T13:09:02.751Z,2.63
2022-10-24T13:10:12.500Z,2.55
2022-10-24T13:11:29.865Z,2.50
2022-10-24T13:13:25.933Z,2.90
2022-10-24T13:14:36.913Z,2.58
2022-10-24T13:15:51.039Z,2.67
2022-10-24T13:16:58.806Z,3.47
2022-10-24T13:18:29.511Z,2.40
2022-10-24T13:19:32.327Z,2.97
2022-10-24T13:20:45.460Z,2.90
2022-10-24T13:21:50.384Z,2.85
2022-10-24T13:23:01.770Z,2.60
2022-10-24T13:24:21.863Z,2.60
2022-10-24T13:25:35.782Z,2.47
2022-10-24T13:26:40.591Z,2.72
2022-10-24T13:27:42.741Z,3.00
2022-10-24T13:28:44.894Z,2.17
2022-10-24T13:29:46.991Z,2.80
2022-10-24T13:30:53.216Z,2.80
2022-10-24T13:32:18.638Z,2.60
2022-10-24T13:33:28.718Z,2.60
2022-10-24T13:34:44.207Z,2.65
2022-10-24T13:35:47.522Z,2.40
2022-10-24T13:36:57.072Z,2.95
2022-10-24T13:38:03.784Z,3.47
2022-10-24T13:39:15.737Z,3.47
2022-10-24T13:40:33.025Z,2.53
2022-10-24T13:41:42.634Z,2.50
2022-10-24T13:42:56.464Z,3.13
2022-10-24T13:44:41.567Z,2.42
2022-10-24T13:45:57.554Z,2.80
2022-10-24T13:47:07.752Z,2.15
2022-10-24T13:48:26.319Z,2.60
2022-10-24T13:49:33.228Z,2.38
2022-10-24T13:50:41.632Z,2.50
2022-10-24T13:51:48.947Z,2.42
2022-10-24T13:52:54.764Z,2.88
2022-10-24T13:54:03.612Z,2.83
2022-10-24T13:56:19.109Z,2.55
2022-10-24T13:57:35.783Z,2.85
2022-10-24T13:58:44.184Z,3.70
2022-10-24T13:59:54.655Z,3.08
2022-10-24T14:00:59.536Z,2.80
2022-10-24T14:02:06.218Z,3.10
2022-10-24T14:03:20.205Z,2.60
2022-10-24T14:04:23.585Z,2.70
2022-10-24T14:05:39.627Z,2.70
2022-10-24T14:06:42.608Z,3.05
2022-10-24T14:07:44.971Z,3.42
2022-10-24T14:09:02.862Z,3.00
2022-10-24T14:10:14.250Z,2.90
2022-10-24T14:11:23.808Z,2.95
2022-10-24T14:12:30.259Z,2.95
2022-10-24T14:13:38.390Z,3.10
2022-10-24T14:14:41.004Z,2.58
2022-10-24T14:15:51.710Z,3.05
2022-10-24T14:17:22.813Z,3.10
2022-10-24T14:18:26.409Z,3.15
2022-10-24T14:19:32.990Z,3.40
2022-10-24T14:20:37.625Z,2.70
2022-10-24T14:21:45.786Z,2.85
2022-10-24T14:22:48.304Z,3.10
2022-10-24T14:23:59.296Z,3.08
2022-10-24T14:25:01.520Z,3.53
2022-10-24T14:26:08.207Z,2.28
2022-10-24T14:27:13.039Z,2.75
2022-10-24T14:28:17.254Z,3.08
2022-10-24T14:29:27.891Z,3.38
2022-10-24T14:30:33.601Z,2.90
2022-10-24T14:31:37.422Z,2.92
2022-10-24T14:32:39.552Z,2.53
2022-10-24T14:33:48.694Z,3.00
2022-10-24T14:34:51.944Z,3.03
2022-10-24T14:35:57.967Z,3.85
2022-10-24T14:37:05.311Z,3.95
2022-10-24T14:38:10.706Z,3.38
2022-10-24T14:39:18.446Z,3.05
2022-10-24T14:40:20.766Z,2.95
2022-10-24T14:41:30.037Z,2.83
2022-10-24T14:42:32.491Z,2.97
2022-10-24T14:43:39.831Z,2.67
2022-10-24T14:44:46.476Z,2.42
2022-10-24T14:46:33.253Z,2.85
2022-10-24T14:47:39.000Z,2.83
2022-10-24T14:48:47.029Z,2.85
2022-10-24T14:49:50.049Z,2.42
2022-10-24T14:51:03.300Z,2.80
2022-10-24T14:52:16.453Z,3.00
2022-10-24T14:53:32.168Z,3.33
2022-10-24T14:54:35.233Z,2.83
2022-10-24T14:55:40.084Z,3.00
2022-10-24T14:56:42.700Z,2.65
2022-10-24T14:57:50.483Z,3.10
2022-10-24T14:58:56.159Z,3.13
2022-10-24T15:00:07.099Z,3.30
2022-10-24T15:01:18.497Z,3.20
2022-10-24T15:02:42.149Z,3.15
2022-10-24T15:03:57.445Z,3.08
2022-10-24T15:05:35.180Z,2.70
2022-10-24T15:06:43.786Z,2.83
2022-10-24T15:08:23.134Z,3.05
2022-10-24T15:09:26.224Z,3.00